Tropical Cyclones
[Index]
Main Index Home Page Stock Weather Photos Extreme Storms Discussion Storm News and Storm Chasing Reports Tropical Cyclones / Hurricanes / Typhoons Weather Data and Links Wild Fires / Bushfires Weather Observation Techniques Weather Picture Catalogue Tornado Pictures and Reports Stock Video Footage and DVDs for sale
Season 2014-2015 Tropical Cyclone REUBEN Track Map
Season 2014-2015 Summaries: [BoM-AU] [JTWC-AU] [JTWC-SIO] [JTWC-SPAC] [JTWC-SH]
<<- Previous TC | JTWC 2014-2015 Season | Next TC ->>

click for intensity scale information  Lat/long Grid: Show Hide

 Date Labels: Show Hide

Joint Typhoon Warning Centre Cyclone Data

Name: REUBEN

19 Mar 2015 18:00 UTC to 24 Mar 2015 00:00 UTC

    date/time    lat    long     hPa   cat  kts
2015-03-19 18   15.3   177.6W   1007         20          
2015-03-20 00   16.4   177.9W   1005         20          
2015-03-20 06   17.4   177.9W   1004         25          
2015-03-20 12   18.3   177.8W   1004         25          
2015-03-20 18   19.2   177.7W   1000         30          
2015-03-21 00   20.0   177.5W   1000         30          
2015-03-21 06   20.7   177.5W   1000         30          
2015-03-21 12   21.3   177.2W    996         35          
2015-03-21 15   21.7   176.7W    996         35          
2015-03-21 18   22.1   176.1W    996         35          
2015-03-22 00   23.3   175.2W    993    1    40          
2015-03-22 06   24.9   174.6W    989    1    45          
2015-03-22 12   25.2   174.4W    989    1    45          
2015-03-22 18   26.0   173.9W    993    1    40          
2015-03-23 00   26.1   173.5W    996         35          
2015-03-23 06   26.0   173.2W    996         35          
2015-03-23 12   26.0   172.9W    996         35          
2015-03-23 18   26.0   172.4W   1000         30          
2015-03-24 00   26.1   172.0W   1004         25          
Winds are 1-min average.

Tropical cyclone tracks developed by Michael Bath using data from the Joint Typhoon Warning Centre Best Tracks and Google Maps.


[Australian Severe Weather index] [Copyright Notice] [Email Contacts] [Search This Site] [Privacy Policy]
Document: tropical_cyclone_reuben.htm Updated: 28 June 2017